Doddsville, Mississippi
Current Conditions -  °F | °C
As of 8:15 AM on Thursday 29 Jan 2015 (Local Time) from KRNV Reporting Station
Clear Clear  
Wind Chill: 52°   Ceiling: Unl
Heat Index: 52°   Visibility: 10mi
Dew Point: 49°   Wind: 12mph
Humidity: 91%   Direction: 210°SSW
Pressure: 30.12"   Gusts: NA
Location:  33.66°N, 90.52°W
Report Text: KRNV 291415Z AUTO 21010KT 10SM CLR 11/10 A3012 RMK AO2 T01120097
Loading
Personal Weather Stations






























Interactive Weather Map New forecast layout! Learn more

10-Day Weather Forecast

Advertisements
Track Severe Weather on mobile